createdAt,value
2018-02-09T00:00:05.123Z,978.65
2018-02-09T00:01:05.038Z,978.62
2018-02-09T00:02:05.638Z,978.68
2018-02-09T00:03:05.787Z,978.49
2018-02-09T00:04:05.155Z,978.71
2018-02-09T00:05:05.428Z,978.60
2018-02-09T00:06:05.408Z,978.65
2018-02-09T00:07:05.321Z,978.60
2018-02-09T00:08:05.744Z,978.66
2018-02-09T00:09:05.738Z,978.71
2018-02-09T00:10:05.471Z,978.55
2018-02-09T00:11:05.697Z,978.77
2018-02-09T00:12:05.712Z,978.58
2018-02-09T00:13:05.484Z,978.74
2018-02-09T00:14:05.592Z,978.63
2018-02-09T00:15:05.063Z,978.69
2018-02-09T00:16:05.357Z,978.69
2018-02-09T00:17:05.117Z,978.60
2018-02-09T00:18:05.797Z,978.63
2018-02-09T00:19:05.980Z,978.77
2018-02-09T00:20:05.464Z,978.69
2018-02-09T00:21:05.077Z,978.69
2018-02-09T00:22:05.648Z,978.63
2018-02-09T00:23:05.225Z,978.72
2018-02-09T00:24:05.303Z,978.52
2018-02-09T00:25:05.955Z,978.55
2018-02-09T00:26:05.240Z,978.69
2018-02-09T00:27:06.995Z,978.72
2018-02-09T00:28:05.470Z,978.61
2018-02-09T00:29:05.489Z,978.56
2018-02-09T00:30:05.640Z,978.56
2018-02-09T00:31:05.090Z,978.62
2018-02-09T00:32:05.527Z,978.73
2018-02-09T00:33:08.289Z,978.56
2018-02-09T00:34:05.237Z,978.65
2018-02-09T00:35:05.659Z,978.70
2018-02-09T00:36:05.581Z,978.73
2018-02-09T00:37:05.276Z,978.73
2018-02-09T00:38:05.508Z,978.51
2018-02-09T00:39:05.088Z,978.62
2018-02-09T00:40:05.669Z,978.73
2018-02-09T00:41:05.025Z,978.49
2018-02-09T00:42:05.249Z,978.65
2018-02-09T00:43:05.129Z,978.60
2018-02-09T00:44:06.348Z,978.60
2018-02-09T00:45:05.370Z,978.54
2018-02-09T00:46:06.037Z,978.44
2018-02-09T00:47:05.493Z,978.60
2018-02-09T00:48:05.588Z,978.60
2018-02-09T00:49:05.742Z,978.60
2018-02-09T00:50:10.665Z,978.55
2018-02-09T00:51:10.564Z,978.47
2018-02-09T00:52:05.863Z,978.58
2018-02-09T00:53:05.575Z,978.66
2018-02-09T00:54:06.905Z,978.47
2018-02-09T00:55:06.052Z,978.52
2018-02-09T00:56:10.341Z,978.44
2018-02-09T00:57:05.392Z,978.55
2018-02-09T00:58:05.920Z,978.63
2018-02-09T00:59:05.617Z,978.50
2018-02-09T01:00:06.028Z,978.50
2018-02-09T01:01:05.365Z,978.55
2018-02-09T01:02:05.123Z,978.72
2018-02-09T01:03:06.499Z,978.64
2018-02-09T01:04:05.489Z,978.50
2018-02-09T01:05:05.717Z,978.37
2018-02-09T01:06:05.518Z,978.40
2018-02-09T01:07:05.904Z,978.40
2018-02-09T01:08:10.552Z,978.45
2018-02-09T01:09:05.506Z,978.50
2018-02-09T01:10:05.789Z,978.35
2018-02-09T01:11:05.476Z,978.48
2018-02-09T01:12:05.094Z,978.51
2018-02-09T01:13:05.646Z,978.41
2018-02-09T01:14:05.515Z,978.41
2018-02-09T01:15:05.486Z,978.44
2018-02-09T01:16:05.561Z,978.45
2018-02-09T01:17:05.862Z,978.45
2018-02-09T01:18:05.525Z,978.45
2018-02-09T01:19:04.923Z,978.36
2018-02-09T01:20:05.212Z,978.51
2018-02-09T01:21:05.808Z,978.48
2018-02-09T01:22:05.340Z,978.41
2018-02-09T01:23:05.691Z,978.30
2018-02-09T01:24:05.317Z,978.33
2018-02-09T01:25:05.445Z,978.39
2018-02-09T01:26:05.568Z,978.41
2018-02-09T01:27:05.093Z,978.39
2018-02-09T01:28:05.254Z,978.39
2018-02-09T01:29:05.992Z,978.33
2018-02-09T01:30:06.025Z,978.36
2018-02-09T01:31:05.714Z,978.39
2018-02-09T01:32:05.281Z,978.33
2018-02-09T01:33:05.863Z,978.31
2018-02-09T01:34:05.293Z,978.22
2018-02-09T01:35:05.865Z,978.31
2018-02-09T01:36:05.464Z,978.28
2018-02-09T01:37:05.572Z,978.20
2018-02-09T01:38:05.126Z,978.17
2018-02-09T01:39:06.038Z,978.17
2018-02-09T01:40:06.147Z,978.20
2018-02-09T01:41:05.437Z,978.33
2018-02-09T01:42:05.366Z,978.28
2018-02-09T01:43:05.162Z,978.36
2018-02-09T01:44:05.888Z,978.25
2018-02-09T01:45:05.059Z,978.33
2018-02-09T01:46:05.695Z,978.28
2018-02-09T01:47:05.592Z,978.25
2018-02-09T01:48:05.795Z,978.30
2018-02-09T01:49:05.157Z,978.17
2018-02-09T01:50:06.016Z,978.28
2018-02-09T01:51:05.312Z,978.36
2018-02-09T01:52:05.325Z,978.33
2018-02-09T01:53:05.748Z,978.14
2018-02-09T01:54:05.094Z,978.25
2018-02-09T01:55:05.313Z,978.28
2018-02-09T01:56:05.242Z,978.22
2018-02-09T01:57:05.889Z,978.22
2018-02-09T01:58:05.404Z,978.30
2018-02-09T01:59:05.722Z,978.36
2018-02-09T02:00:05.862Z,978.19
2018-02-09T02:01:05.382Z,978.27
2018-02-09T02:02:05.390Z,978.33
2018-02-09T02:03:05.071Z,978.25
2018-02-09T02:04:05.482Z,978.16
2018-02-09T02:05:05.013Z,978.22
2018-02-09T02:06:05.689Z,978.22
2018-02-09T02:07:06.814Z,978.30
2018-02-09T02:08:05.219Z,978.16
2018-02-09T02:09:05.144Z,978.22
2018-02-09T02:10:05.718Z,978.22
2018-02-09T02:11:05.488Z,978.24
2018-02-09T02:12:05.646Z,978.13
2018-02-09T02:13:05.892Z,978.02
2018-02-09T02:14:06.006Z,978.10
2018-02-09T02:15:05.826Z,977.99
2018-02-09T02:16:05.353Z,978.16
2018-02-09T02:17:04.986Z,978.24
2018-02-09T02:18:05.621Z,978.16
2018-02-09T02:19:05.616Z,978.16
2018-02-09T02:20:10.529Z,978.13
2018-02-09T02:21:10.400Z,978.10
2018-02-09T02:22:05.117Z,977.99
2018-02-09T02:23:05.113Z,978.13
2018-02-09T02:24:05.437Z,977.96
2018-02-09T02:25:05.170Z,977.99
2018-02-09T02:26:05.983Z,978.10
2018-02-09T02:27:06.222Z,978.10
2018-02-09T02:28:05.177Z,978.07
2018-02-09T02:29:05.847Z,978.15
2018-02-09T02:30:05.223Z,978.09
2018-02-09T02:31:05.815Z,978.07
2018-02-09T02:32:10.603Z,977.98
2018-02-09T02:33:05.005Z,978.09
2018-02-09T02:34:05.698Z,977.98
2018-02-09T02:35:05.937Z,978.01
2018-02-09T02:36:05.392Z,978.09
2018-02-09T02:37:05.201Z,978.06
2018-02-09T02:38:05.655Z,978.04
2018-02-09T02:39:10.351Z,978.12
2018-02-09T02:40:05.477Z,978.01
2018-02-09T02:41:06.036Z,978.03
2018-02-09T02:42:05.776Z,978.06
2018-02-09T02:43:05.474Z,977.95
2018-02-09T02:44:06.037Z,977.98
2018-02-09T02:45:10.006Z,977.95
2018-02-09T02:46:05.255Z,977.79
2018-02-09T02:47:05.651Z,977.95
2018-02-09T02:48:05.301Z,977.84
2018-02-09T02:49:05.536Z,977.87
2018-02-09T02:50:04.954Z,977.84
2018-02-09T02:51:05.672Z,977.81
2018-02-09T02:52:05.288Z,977.78
2018-02-09T02:53:05.206Z,977.81
2018-02-09T02:54:05.487Z,977.84
2018-02-09T02:55:05.121Z,977.78
2018-02-09T02:56:05.462Z,977.70
2018-02-09T02:57:05.387Z,977.86
2018-02-09T02:58:05.916Z,977.86
2018-02-09T02:59:05.407Z,977.67
2018-02-09T03:00:05.951Z,977.75
2018-02-09T03:01:10.752Z,977.67
2018-02-09T03:02:05.718Z,977.60
2018-02-09T03:03:05.174Z,977.73
2018-02-09T03:04:05.244Z,977.67
2018-02-09T03:05:05.274Z,977.60
2018-02-09T03:06:05.295Z,977.81
2018-02-09T03:07:05.968Z,977.54
2018-02-09T03:08:05.089Z,977.57
2018-02-09T03:09:05.673Z,977.60
2018-02-09T03:10:05.963Z,977.67
2018-02-09T03:11:06.647Z,977.70
2018-02-09T03:12:05.114Z,977.54
2018-02-09T03:13:06.131Z,977.67
2018-02-09T03:14:05.827Z,977.67
2018-02-09T03:15:05.342Z,977.70
2018-02-09T03:16:05.844Z,977.73
2018-02-09T03:17:05.988Z,977.70
2018-02-09T03:18:05.557Z,977.75
2018-02-09T03:19:05.875Z,977.73
2018-02-09T03:20:06.023Z,977.57
2018-02-09T03:21:05.427Z,977.60
2018-02-09T03:22:05.814Z,977.60
2018-02-09T03:23:05.577Z,977.60
2018-02-09T03:24:05.255Z,977.52
2018-02-09T03:25:05.390Z,977.52
2018-02-09T03:26:05.911Z,977.49
2018-02-09T03:27:05.652Z,977.49
2018-02-09T03:28:04.965Z,977.65
2018-02-09T03:29:05.451Z,977.57
2018-02-09T03:30:05.173Z,977.49
2018-02-09T03:31:05.363Z,977.49
2018-02-09T03:32:05.393Z,977.52
2018-02-09T03:33:06.840Z,977.49
2018-02-09T03:34:05.705Z,977.52
2018-02-09T03:35:05.770Z,977.55
2018-02-09T03:36:05.805Z,977.52
2018-02-09T03:37:05.288Z,977.58
2018-02-09T03:38:05.381Z,977.44
2018-02-09T03:39:05.051Z,977.44
2018-02-09T03:40:04.994Z,977.50
2018-02-09T03:41:06.128Z,977.61
2018-02-09T03:42:05.207Z,977.50
2018-02-09T03:43:05.621Z,977.58
2018-02-09T03:44:05.082Z,977.58
2018-02-09T03:45:05.750Z,977.55
2018-02-09T03:46:05.697Z,977.61
2018-02-09T03:47:06.054Z,977.47
2018-02-09T03:48:10.769Z,977.45
2018-02-09T03:49:05.934Z,977.50
2018-02-09T03:50:05.266Z,977.45
2018-02-09T03:51:05.757Z,977.53
2018-02-09T03:52:04.903Z,977.45
2018-02-09T03:53:05.643Z,977.45
2018-02-09T03:54:05.870Z,977.45
2018-02-09T03:55:05.163Z,977.34
2018-02-09T03:56:05.120Z,977.53
2018-02-09T03:57:05.924Z,977.54
2018-02-09T03:58:05.846Z,977.54
2018-02-09T03:59:05.858Z,977.54
2018-02-09T04:00:06.191Z,977.40
2018-02-09T04:01:05.634Z,977.43
2018-02-09T04:02:05.172Z,977.46
2018-02-09T04:03:05.647Z,977.35
2018-02-09T04:04:05.545Z,977.40
2018-02-09T04:05:05.931Z,977.54
2018-02-09T04:06:05.455Z,977.49
2018-02-09T04:07:05.331Z,977.35
2018-02-09T04:08:05.092Z,977.43
2018-02-09T04:09:05.390Z,977.43
2018-02-09T04:10:05.561Z,977.38
2018-02-09T04:11:05.138Z,977.33
2018-02-09T04:12:05.511Z,977.33
2018-02-09T04:13:04.949Z,977.33
2018-02-09T04:14:10.002Z,977.30
2018-02-09T04:15:06.005Z,977.46
2018-02-09T04:16:05.127Z,977.33
2018-02-09T04:17:05.952Z,977.27
2018-02-09T04:18:05.092Z,977.30
2018-02-09T04:19:05.628Z,977.41
2018-02-09T04:20:06.251Z,977.36
2018-02-09T04:21:05.425Z,977.27
2018-02-09T04:22:05.914Z,977.30
2018-02-09T04:23:05.570Z,977.30
2018-02-09T04:24:05.539Z,977.33
2018-02-09T04:25:05.906Z,977.17
2018-02-09T04:26:05.014Z,977.14
2018-02-09T04:27:06.113Z,977.14
2018-02-09T04:28:06.096Z,977.25
2018-02-09T04:29:05.899Z,977.22
2018-02-09T04:30:05.879Z,977.22
2018-02-09T04:31:05.687Z,977.25
2018-02-09T04:32:05.563Z,977.19
2018-02-09T04:33:05.765Z,977.22
2018-02-09T04:34:05.989Z,977.17
2018-02-09T04:35:05.039Z,977.09
2018-02-09T04:36:11.064Z,977.11
2018-02-09T04:37:05.380Z,977.11
2018-02-09T04:38:05.634Z,977.22
2018-02-09T04:39:05.151Z,977.11
2018-02-09T04:40:05.525Z,977.11
2018-02-09T04:41:05.486Z,977.14
2018-02-09T04:42:05.062Z,977.11
2018-02-09T04:43:05.269Z,977.20
2018-02-09T04:44:05.846Z,977.14
2018-02-09T04:45:05.206Z,977.06
2018-02-09T04:46:06.070Z,977.12
2018-02-09T04:47:05.466Z,977.23
2018-02-09T04:48:05.114Z,977.15
2018-02-09T04:49:05.529Z,977.12
2018-02-09T04:50:05.642Z,977.10
2018-02-09T04:51:05.205Z,976.93
2018-02-09T04:52:05.909Z,977.01
2018-02-09T04:53:06.666Z,977.04
2018-02-09T04:54:05.098Z,977.04
2018-02-09T04:55:05.698Z,977.04
2018-02-09T04:56:05.320Z,977.02
2018-02-09T04:57:05.373Z,976.88
2018-02-09T04:58:05.760Z,976.99
2018-02-09T04:59:05.487Z,976.99
2018-02-09T05:00:05.943Z,977.13
2018-02-09T05:01:05.727Z,977.05
2018-02-09T05:02:05.438Z,976.88
2018-02-09T05:03:05.405Z,977.08
2018-02-09T05:04:04.981Z,976.99
2018-02-09T05:05:05.121Z,976.97
2018-02-09T05:06:05.210Z,977.05
2018-02-09T05:07:05.616Z,977.00
2018-02-09T05:08:05.809Z,976.91
2018-02-09T05:09:05.705Z,977.11
2018-02-09T05:10:05.755Z,977.03
2018-02-09T05:11:05.441Z,977.08
2018-02-09T05:12:06.502Z,977.11
2018-02-09T05:13:05.109Z,977.00
2018-02-09T05:14:05.445Z,977.16
2018-02-09T05:15:05.825Z,977.06
2018-02-09T05:16:05.625Z,977.17
2018-02-09T05:17:05.241Z,977.11
2018-02-09T05:18:05.345Z,976.95
2018-02-09T05:19:05.897Z,976.87
2018-02-09T05:20:05.125Z,977.00
2018-02-09T05:21:05.881Z,976.89
2018-02-09T05:22:05.294Z,976.98
2018-02-09T05:23:05.109Z,977.03
2018-02-09T05:24:05.097Z,976.87
2018-02-09T05:25:05.330Z,976.92
2018-02-09T05:26:05.600Z,977.03
2018-02-09T05:27:05.484Z,976.95
2018-02-09T05:28:05.987Z,976.90
2018-02-09T05:29:05.332Z,976.93
2018-02-09T05:30:05.172Z,976.96
2018-02-09T05:31:05.959Z,976.98
2018-02-09T05:32:05.521Z,977.01
2018-02-09T05:33:05.152Z,977.01
2018-02-09T05:34:05.555Z,976.96
2018-02-09T05:35:05.475Z,977.01
2018-02-09T05:36:05.540Z,976.93
2018-02-09T05:37:05.188Z,976.93
2018-02-09T05:38:05.600Z,976.96
2018-02-09T05:39:05.605Z,976.90
2018-02-09T05:40:05.050Z,976.91
2018-02-09T05:41:05.864Z,976.96
2018-02-09T05:42:05.475Z,976.94
2018-02-09T05:43:05.686Z,976.99
2018-02-09T05:44:05.087Z,977.05
2018-02-09T05:45:05.973Z,976.91
2018-02-09T05:46:05.057Z,976.94
2018-02-09T05:47:05.693Z,976.89
2018-02-09T05:48:05.854Z,976.94
2018-02-09T05:49:05.779Z,976.80
2018-02-09T05:50:05.105Z,976.86
2018-02-09T05:51:05.644Z,976.86
2018-02-09T05:52:05.797Z,976.84
2018-02-09T05:53:05.267Z,976.92
2018-02-09T05:54:08.770Z,976.97
2018-02-09T05:55:05.691Z,976.89
2018-02-09T05:56:05.852Z,976.89
2018-02-09T05:57:05.004Z,976.81
2018-02-09T05:58:05.089Z,976.84
2018-02-09T05:59:06.033Z,976.78
2018-02-09T06:00:05.705Z,976.84
2018-02-09T06:01:10.442Z,976.76
2018-02-09T06:02:05.453Z,976.92
2018-02-09T06:03:05.307Z,976.87
2018-02-09T06:04:05.604Z,976.90
2018-02-09T06:05:05.954Z,976.84
2018-02-09T06:06:10.611Z,976.82
2018-02-09T06:07:05.352Z,976.76
2018-02-09T06:08:05.113Z,976.87
2018-02-09T06:09:05.880Z,976.82
2018-02-09T06:10:05.296Z,976.87
2018-02-09T06:11:05.206Z,976.77
2018-02-09T06:12:05.596Z,976.88
2018-02-09T06:13:05.518Z,976.90
2018-02-09T06:14:05.627Z,976.93
2018-02-09T06:15:05.176Z,976.80
2018-02-09T06:16:05.885Z,977.04
2018-02-09T06:17:05.882Z,976.96
2018-02-09T06:18:05.932Z,976.91
2018-02-09T06:19:05.558Z,976.93
2018-02-09T06:20:05.561Z,976.96
2018-02-09T06:21:05.311Z,976.85
2018-02-09T06:22:05.219Z,976.80
2018-02-09T06:23:05.443Z,976.85
2018-02-09T06:24:05.642Z,976.73
2018-02-09T06:25:05.556Z,976.91
2018-02-09T06:26:10.316Z,976.88
2018-02-09T06:27:05.525Z,976.94
2018-02-09T06:28:05.871Z,976.91
2018-02-09T06:29:05.245Z,976.80
2018-02-09T06:30:05.920Z,976.89
2018-02-09T06:31:05.450Z,976.91
2018-02-09T06:32:05.856Z,976.75
2018-02-09T06:33:05.692Z,977.08
2018-02-09T06:34:05.213Z,976.97
2018-02-09T06:35:05.940Z,976.92
2018-02-09T06:36:06.037Z,976.89
2018-02-09T06:37:05.368Z,976.92
2018-02-09T06:38:05.928Z,976.78
2018-02-09T06:39:05.349Z,977.03
2018-02-09T06:40:06.495Z,976.92
2018-02-09T06:41:05.629Z,976.95
2018-02-09T06:42:05.152Z,976.92
2018-02-09T06:43:05.093Z,976.98
2018-02-09T06:44:05.251Z,977.03
2018-02-09T06:45:05.833Z,976.92
2018-02-09T06:46:05.585Z,976.98
2018-02-09T06:47:05.207Z,977.06
2018-02-09T06:48:05.449Z,976.96
2018-02-09T06:49:05.576Z,976.85
2018-02-09T06:50:05.520Z,976.93
2018-02-09T06:51:05.615Z,976.93
2018-02-09T06:52:05.271Z,976.96
2018-02-09T06:53:10.418Z,976.88
2018-02-09T06:54:05.235Z,976.99
2018-02-09T06:55:05.033Z,976.91
2018-02-09T06:56:05.892Z,977.02
2018-02-09T06:57:05.584Z,976.94
2018-02-09T06:58:05.269Z,976.94
2018-02-09T06:59:05.534Z,977.11
2018-02-09T07:00:05.596Z,977.03
2018-02-09T07:01:05.662Z,977.08
2018-02-09T07:02:05.120Z,976.92
2018-02-09T07:03:05.851Z,977.08
2018-02-09T07:04:05.392Z,977.17
2018-02-09T07:05:05.262Z,977.08
2018-02-09T07:06:05.302Z,977.06
2018-02-09T07:07:06.067Z,976.90
2018-02-09T07:08:05.919Z,977.12
2018-02-09T07:09:05.520Z,976.85
2018-02-09T07:10:05.846Z,976.90
2018-02-09T07:11:05.549Z,977.01
2018-02-09T07:12:05.227Z,976.96
2018-02-09T07:13:10.837Z,976.96
2018-02-09T07:14:05.199Z,977.01
2018-02-09T07:15:06.111Z,976.96
2018-02-09T07:16:05.446Z,976.90
2018-02-09T07:17:05.266Z,977.01
2018-02-09T07:18:06.969Z,976.88
2018-02-09T07:19:05.306Z,976.93
2018-02-09T07:20:05.049Z,976.93
2018-02-09T07:21:05.087Z,976.88
2018-02-09T07:22:05.934Z,976.99
2018-02-09T07:23:05.642Z,976.99
2018-02-09T07:24:05.429Z,976.88
2018-02-09T07:25:05.616Z,976.82
2018-02-09T07:26:05.218Z,976.90
2018-02-09T07:27:05.478Z,976.69
2018-02-09T07:28:05.283Z,976.87
2018-02-09T07:29:05.436Z,976.76
2018-02-09T07:30:05.197Z,976.82
2018-02-09T07:31:04.962Z,976.90
2018-02-09T07:32:05.753Z,976.92
2018-02-09T07:33:05.091Z,976.89
2018-02-09T07:34:05.544Z,976.87
2018-02-09T07:35:05.871Z,976.68
2018-02-09T07:36:05.877Z,976.86
2018-02-09T07:37:05.298Z,976.89
2018-02-09T07:38:05.922Z,976.80
2018-02-09T07:39:05.691Z,976.75
2018-02-09T07:40:05.093Z,976.80
2018-02-09T07:41:05.876Z,976.88
2018-02-09T07:42:05.421Z,976.77
2018-02-09T07:43:05.103Z,976.77
2018-02-09T07:44:05.363Z,976.74
2018-02-09T07:45:05.646Z,976.85
2018-02-09T07:46:05.525Z,976.76
2018-02-09T07:47:05.742Z,976.76
2018-02-09T07:48:05.742Z,976.63
2018-02-09T07:49:05.097Z,976.55
2018-02-09T07:50:06.861Z,976.68
2018-02-09T07:51:05.923Z,976.65
2018-02-09T07:52:07.152Z,976.60
2018-02-09T07:53:05.399Z,976.62
2018-02-09T07:54:05.817Z,976.59
2018-02-09T07:55:05.612Z,976.80
2018-02-09T07:56:05.114Z,976.64
2018-02-09T07:57:06.014Z,976.61
2018-02-09T07:58:05.807Z,976.69
2018-02-09T07:59:05.317Z,976.69
2018-02-09T08:00:05.445Z,976.60
2018-02-09T08:01:06.021Z,976.71
2018-02-09T08:02:05.240Z,976.71
2018-02-09T08:03:05.540Z,976.75
2018-02-09T08:04:05.876Z,976.70
2018-02-09T08:05:05.304Z,976.70
2018-02-09T08:06:05.650Z,976.74
2018-02-09T08:07:06.070Z,976.74
2018-02-09T08:08:05.669Z,976.55
2018-02-09T08:09:05.873Z,976.49
2018-02-09T08:10:05.015Z,976.60
2018-02-09T08:11:05.100Z,976.62
2018-02-09T08:12:05.235Z,976.51
2018-02-09T08:13:05.537Z,976.54
2018-02-09T08:14:05.618Z,976.62
2018-02-09T08:15:05.855Z,976.72
2018-02-09T08:16:05.927Z,976.72
2018-02-09T08:17:10.732Z,976.69
2018-02-09T08:18:05.546Z,976.55
2018-02-09T08:19:05.008Z,976.63
2018-02-09T08:20:06.193Z,976.49
2018-02-09T08:21:06.517Z,976.60
2018-02-09T08:22:05.614Z,976.59
2018-02-09T08:23:05.363Z,976.62
2018-02-09T08:24:05.542Z,976.53
2018-02-09T08:25:05.194Z,976.61
2018-02-09T08:26:05.706Z,976.58
2018-02-09T08:27:05.492Z,976.52
2018-02-09T08:28:05.381Z,976.49
2018-02-09T08:29:05.596Z,976.60
2018-02-09T08:30:05.580Z,976.57
2018-02-09T08:31:05.229Z,976.67
2018-02-09T08:32:05.797Z,976.62
2018-02-09T08:33:05.318Z,976.50
2018-02-09T08:34:04.997Z,976.45
2018-02-09T08:35:05.263Z,976.42
2018-02-09T08:36:10.762Z,976.58
2018-02-09T08:37:06.019Z,976.52
2018-02-09T08:38:05.127Z,976.60
2018-02-09T08:39:05.356Z,976.46
2018-02-09T08:40:05.317Z,976.62
2018-02-09T08:41:05.128Z,976.46
2018-02-09T08:42:05.291Z,976.62
2018-02-09T08:43:05.518Z,976.70
2018-02-09T08:44:05.501Z,976.64
2018-02-09T08:45:05.742Z,976.47
2018-02-09T08:46:05.207Z,976.52
2018-02-09T08:47:05.220Z,976.66
2018-02-09T08:48:05.147Z,976.44
2018-02-09T08:49:05.770Z,976.51
2018-02-09T08:50:05.416Z,976.54
2018-02-09T08:51:05.474Z,976.51
2018-02-09T08:52:05.947Z,976.53
2018-02-09T08:53:05.595Z,976.36
2018-02-09T08:54:05.944Z,976.45
2018-02-09T08:55:05.088Z,976.42
2018-02-09T08:56:05.596Z,976.44
2018-02-09T08:57:05.355Z,976.41
2018-02-09T08:58:05.131Z,976.44
2018-02-09T08:59:05.684Z,976.41
2018-02-09T09:00:05.400Z,976.46
2018-02-09T09:01:05.580Z,976.37
2018-02-09T09:02:05.874Z,976.48
2018-02-09T09:03:05.771Z,976.34
2018-02-09T09:04:04.985Z,976.45
2018-02-09T09:05:05.117Z,976.45
2018-02-09T09:06:06.154Z,976.39
2018-02-09T09:07:05.806Z,976.44
2018-02-09T09:08:11.200Z,976.39
2018-02-09T09:09:05.318Z,976.33
2018-02-09T09:10:05.846Z,976.32
2018-02-09T09:11:05.581Z,976.46
2018-02-09T09:12:05.512Z,976.35
2018-02-09T09:13:05.838Z,976.40
2018-02-09T09:14:05.946Z,976.31
2018-02-09T09:15:05.786Z,976.28
2018-02-09T09:16:05.893Z,976.20
2018-02-09T09:17:05.361Z,976.41
2018-02-09T09:18:05.293Z,976.36
2018-02-09T09:19:05.605Z,976.24
2018-02-09T09:20:05.861Z,976.43
2018-02-09T09:21:06.623Z,976.26
2018-02-09T09:22:05.060Z,976.37
2018-02-09T09:23:05.177Z,976.31
2018-02-09T09:24:05.020Z,976.45
2018-02-09T09:25:06.021Z,976.36
2018-02-09T09:26:05.796Z,976.36
2018-02-09T09:27:05.131Z,976.38
2018-02-09T09:28:05.470Z,976.27
2018-02-09T09:29:05.179Z,976.41
2018-02-09T09:30:05.076Z,976.40
2018-02-09T09:31:06.567Z,976.40
2018-02-09T09:32:05.665Z,976.26
2018-02-09T09:33:05.966Z,976.34
2018-02-09T09:34:06.083Z,976.45
2018-02-09T09:35:10.138Z,976.45
2018-02-09T09:36:05.341Z,976.47
2018-02-09T09:37:05.524Z,976.28
2018-02-09T09:38:05.055Z,976.30
2018-02-09T09:39:05.742Z,976.27
2018-02-09T09:40:05.900Z,976.41
2018-02-09T09:41:05.233Z,976.38
2018-02-09T09:42:05.465Z,976.29
2018-02-09T09:43:05.340Z,976.31
2018-02-09T09:44:05.119Z,976.29
2018-02-09T09:45:05.230Z,976.40
2018-02-09T09:46:05.300Z,976.42
2018-02-09T09:47:05.637Z,976.50
2018-02-09T09:48:05.616Z,976.47
2018-02-09T09:49:10.668Z,976.36
2018-02-09T09:50:05.271Z,976.47
2018-02-09T09:51:05.844Z,976.44
2018-02-09T09:52:10.697Z,976.49
2018-02-09T09:53:05.342Z,976.46
2018-02-09T09:54:05.345Z,976.46
2018-02-09T09:55:06.396Z,976.46
2018-02-09T09:56:05.423Z,976.40
2018-02-09T09:57:06.608Z,976.34
2018-02-09T09:58:05.128Z,976.45
2018-02-09T09:59:05.329Z,976.39
2018-02-09T10:00:05.067Z,976.36
2018-02-09T10:01:05.277Z,976.47
2018-02-09T10:02:05.034Z,976.44
2018-02-09T10:03:05.252Z,976.41
2018-02-09T10:04:05.447Z,976.35
2018-02-09T10:05:05.012Z,976.51
2018-02-09T10:06:05.180Z,976.32
2018-02-09T10:07:05.931Z,976.45
2018-02-09T10:08:05.790Z,976.48
2018-02-09T10:09:05.362Z,976.40
2018-02-09T10:10:05.471Z,976.48
2018-02-09T10:11:05.074Z,976.45
2018-02-09T10:12:05.145Z,976.39
2018-02-09T10:13:05.761Z,976.47
2018-02-09T10:14:05.611Z,976.44
2018-02-09T10:15:05.420Z,976.44
2018-02-09T10:16:05.070Z,976.39
2018-02-09T10:17:05.651Z,976.53
2018-02-09T10:18:05.116Z,976.50
2018-02-09T10:19:05.533Z,976.44
2018-02-09T10:20:05.049Z,976.44
2018-02-09T10:21:05.165Z,976.36
2018-02-09T10:22:05.337Z,976.50
2018-02-09T10:23:05.518Z,976.47
2018-02-09T10:24:05.717Z,976.42
2018-02-09T10:25:05.850Z,976.39
2018-02-09T10:26:05.747Z,976.39
2018-02-09T10:27:05.870Z,976.39
2018-02-09T10:28:05.824Z,976.39
2018-02-09T10:29:05.996Z,976.25
2018-02-09T10:30:05.144Z,976.33
2018-02-09T10:31:05.781Z,976.44
2018-02-09T10:32:05.435Z,976.50
2018-02-09T10:33:05.038Z,976.39
2018-02-09T10:34:05.625Z,976.39
2018-02-09T10:35:05.253Z,976.41
2018-02-09T10:36:10.154Z,976.33
2018-02-09T10:37:05.437Z,976.36
2018-02-09T10:38:05.246Z,976.22
2018-02-09T10:39:05.713Z,976.25
2018-02-09T10:40:05.555Z,976.30
2018-02-09T10:41:05.297Z,976.30
2018-02-09T10:42:05.315Z,976.41
2018-02-09T10:43:05.908Z,976.36
2018-02-09T10:44:05.853Z,976.10
2018-02-09T10:45:05.333Z,976.33
2018-02-09T10:46:05.844Z,976.30
2018-02-09T10:47:06.012Z,976.27
2018-02-09T10:48:05.348Z,976.35
2018-02-09T10:49:05.964Z,976.27
2018-02-09T10:50:05.237Z,976.35
2018-02-09T10:51:05.303Z,976.24
2018-02-09T10:52:05.842Z,976.30
2018-02-09T10:53:05.952Z,976.24
2018-02-09T10:54:05.925Z,976.29
2018-02-09T10:55:05.927Z,976.24
2018-02-09T10:56:05.983Z,976.32
2018-02-09T10:57:10.479Z,976.18
2018-02-09T10:58:05.393Z,976.21
2018-02-09T10:59:05.985Z,976.27
2018-02-09T11:00:05.832Z,976.18
2018-02-09T11:01:06.059Z,976.13
2018-02-09T11:02:05.848Z,976.18
2018-02-09T11:03:05.467Z,976.12
2018-02-09T11:04:05.570Z,976.07
2018-02-09T11:05:05.042Z,976.29
2018-02-09T11:06:05.038Z,976.04
2018-02-09T11:07:05.122Z,976.12
2018-02-09T11:08:05.141Z,976.17
2018-02-09T11:09:05.628Z,976.06
2018-02-09T11:10:05.437Z,976.20
2018-02-09T11:11:05.032Z,976.12
2018-02-09T11:12:05.904Z,976.15
2018-02-09T11:13:05.239Z,975.98
2018-02-09T11:14:05.884Z,976.12
2018-02-09T11:15:05.339Z,976.12
2018-02-09T11:16:05.000Z,976.14
2018-02-09T11:17:05.661Z,976.12
2018-02-09T11:18:05.516Z,976.09
2018-02-09T11:19:05.681Z,976.09
2018-02-09T11:20:05.472Z,976.00
2018-02-09T11:21:05.526Z,976.03
2018-02-09T11:22:06.133Z,976.09
2018-02-09T11:23:05.913Z,976.06
2018-02-09T11:24:05.915Z,976.06
2018-02-09T11:25:05.630Z,975.94
2018-02-09T11:26:05.174Z,976.11
2018-02-09T11:27:05.670Z,976.03
2018-02-09T11:28:05.766Z,975.86
2018-02-09T11:29:05.561Z,976.02
2018-02-09T11:30:05.819Z,976.02
2018-02-09T11:31:05.733Z,975.94
2018-02-09T11:32:05.761Z,975.94
2018-02-09T11:33:05.970Z,975.91
2018-02-09T11:34:05.144Z,975.91
2018-02-09T11:35:05.185Z,975.91
2018-02-09T11:36:05.366Z,975.94
2018-02-09T11:37:06.994Z,976.05
2018-02-09T11:38:05.585Z,975.88
2018-02-09T11:39:05.481Z,975.99
2018-02-09T11:40:07.101Z,975.96
2018-02-09T11:41:05.130Z,975.94
2018-02-09T11:42:05.792Z,975.88
2018-02-09T11:43:05.076Z,975.82
2018-02-09T11:44:06.103Z,975.85
2018-02-09T11:45:05.196Z,975.88
2018-02-09T11:46:05.261Z,975.85
2018-02-09T11:47:05.444Z,975.69
2018-02-09T11:48:05.525Z,975.80
2018-02-09T11:49:05.149Z,975.75
2018-02-09T11:50:06.098Z,975.72
2018-02-09T11:51:11.009Z,975.77
2018-02-09T11:52:06.926Z,975.77
2018-02-09T11:53:05.214Z,975.55
2018-02-09T11:54:05.234Z,975.72
2018-02-09T11:55:05.765Z,975.61
2018-02-09T11:56:05.869Z,975.80
2018-02-09T11:57:05.778Z,975.69
2018-02-09T11:58:05.536Z,975.83
2018-02-09T11:59:05.155Z,975.72
2018-02-09T12:00:05.870Z,975.70
2018-02-09T12:01:05.536Z,975.70
2018-02-09T12:02:05.809Z,975.81
2018-02-09T12:03:05.438Z,975.81
2018-02-09T12:04:05.388Z,975.81
2018-02-09T12:05:05.398Z,975.67
2018-02-09T12:06:05.613Z,975.75
2018-02-09T12:07:05.631Z,975.78
2018-02-09T12:08:05.626Z,975.75
2018-02-09T12:09:05.989Z,975.70
2018-02-09T12:10:05.843Z,975.73
2018-02-09T12:11:05.299Z,975.56
2018-02-09T12:12:05.281Z,975.59
2018-02-09T12:13:05.129Z,975.67
2018-02-09T12:14:05.397Z,975.64
2018-02-09T12:15:05.220Z,975.75
2018-02-09T12:16:05.423Z,975.70
2018-02-09T12:17:05.687Z,975.67
2018-02-09T12:18:05.908Z,975.75
2018-02-09T12:19:06.015Z,975.67
2018-02-09T12:20:05.881Z,975.59
2018-02-09T12:21:05.547Z,975.64
2018-02-09T12:22:05.421Z,975.62
2018-02-09T12:23:05.910Z,975.56
2018-02-09T12:24:05.482Z,975.70
2018-02-09T12:25:05.571Z,975.56
2018-02-09T12:26:05.611Z,975.53
2018-02-09T12:27:05.624Z,975.67
2018-02-09T12:28:05.096Z,975.61